Terminal Aerodrome Forecast
Issued by NWS Pittsburgh, PA

Current Version | Previous Version | Graphics & Text | Print | Product List | Glossary On
Versions: 1 2 3 4 5 6 7 8 9 10 11 12 13 14 15 16 17 18 19 20 21 22 23 24 25 26 27 28 29
408
FTUS41 KPBZ 091723
TAFPIT
TAF
KPIT 091723Z 0918/1024 25010KT 2SM -SHSN BR OVC010
     FM100100 27008KT P6SM OVC015
     FM101500 26010KT 3SM -SHSN OVC015=

USA.gov is the U.S. government's official web portal to all federal, state and local government web resources and services.